sensor_id;sensor_type;location;lat;lon;timestamp;P1;durP1;ratioP1;P2;durP2;ratioP2
6939;SDS011;3509;48.510;9.076;2022-07-17T00:00:43;12.75;;;6.85;;
6939;SDS011;3509;48.510;9.076;2022-07-17T00:03:09;11.27;;;7.03;;
6939;SDS011;3509;48.510;9.076;2022-07-17T00:05:36;9.00;;;5.68;;
6939;SDS011;3509;48.510;9.076;2022-07-17T00:08:02;8.60;;;5.40;;
6939;SDS011;3509;48.510;9.076;2022-07-17T00:10:31;12.32;;;6.82;;
6939;SDS011;3509;48.510;9.076;2022-07-17T00:12:57;7.80;;;6.20;;
6939;SDS011;3509;48.510;9.076;2022-07-17T00:15:23;7.47;;;5.50;;
6939;SDS011;3509;48.510;9.076;2022-07-17T00:17:48;10.88;;;5.30;;
6939;SDS011;3509;48.510;9.076;2022-07-17T00:20:14;5.70;;;4.00;;
6939;SDS011;3509;48.510;9.076;2022-07-17T00:22:40;5.35;;;4.38;;
6939;SDS011;3509;48.510;9.076;2022-07-17T00:25:08;6.47;;;4.20;;
6939;SDS011;3509;48.510;9.076;2022-07-17T00:27:34;4.45;;;3.65;;
6939;SDS011;3509;48.510;9.076;2022-07-17T00:30:01;5.40;;;4.30;;
6939;SDS011;3509;48.510;9.076;2022-07-17T00:32:27;8.57;;;6.22;;
6939;SDS011;3509;48.510;9.076;2022-07-17T00:34:53;11.50;;;7.65;;
6939;SDS011;3509;48.510;9.076;2022-07-17T00:37:18;7.20;;;5.28;;
6939;SDS011;3509;48.510;9.076;2022-07-17T00:39:44;10.05;;;5.25;;
6939;SDS011;3509;48.510;9.076;2022-07-17T00:42:10;8.82;;;5.70;;
6939;SDS011;3509;48.510;9.076;2022-07-17T00:44:37;13.43;;;7.63;;
6939;SDS011;3509;48.510;9.076;2022-07-17T00:47:09;8.30;;;5.85;;
6939;SDS011;3509;48.510;9.076;2022-07-17T00:49:42;7.97;;;5.32;;
6939;SDS011;3509;48.510;9.076;2022-07-17T00:52:08;5.65;;;4.88;;
6939;SDS011;3509;48.510;9.076;2022-07-17T00:54:36;9.02;;;6.70;;
6939;SDS011;3509;48.510;9.076;2022-07-17T00:57:07;10.45;;;6.95;;
6939;SDS011;3509;48.510;9.076;2022-07-17T00:59:37;8.15;;;5.97;;
6939;SDS011;3509;48.510;9.076;2022-07-17T01:02:08;8.40;;;5.10;;
6939;SDS011;3509;48.510;9.076;2022-07-17T01:04:38;7.60;;;5.90;;
6939;SDS011;3509;48.510;9.076;2022-07-17T01:07:05;9.32;;;6.22;;
6939;SDS011;3509;48.510;9.076;2022-07-17T01:09:32;11.15;;;6.05;;
6939;SDS011;3509;48.510;9.076;2022-07-17T01:11:59;6.20;;;5.60;;
6939;SDS011;3509;48.510;9.076;2022-07-17T01:14:25;6.53;;;5.30;;
6939;SDS011;3509;48.510;9.076;2022-07-17T01:16:53;7.57;;;5.10;;
6939;SDS011;3509;48.510;9.076;2022-07-17T01:19:20;6.53;;;5.25;;
6939;SDS011;3509;48.510;9.076;2022-07-17T01:21:48;6.22;;;5.35;;
6939;SDS011;3509;48.510;9.076;2022-07-17T01:24:16;8.85;;;5.15;;
6939;SDS011;3509;48.510;9.076;2022-07-17T01:26:43;6.18;;;5.05;;
6939;SDS011;3509;48.510;9.076;2022-07-17T01:29:10;6.05;;;5.28;;
6939;SDS011;3509;48.510;9.076;2022-07-17T01:31:38;7.78;;;5.03;;
6939;SDS011;3509;48.510;9.076;2022-07-17T01:34:07;9.70;;;5.40;;
6939;SDS011;3509;48.510;9.076;2022-07-17T01:36:35;6.28;;;5.40;;
6939;SDS011;3509;48.510;9.076;2022-07-17T01:39:01;5.35;;;4.85;;
6939;SDS011;3509;48.510;9.076;2022-07-17T01:41:28;6.07;;;5.47;;
6939;SDS011;3509;48.510;9.076;2022-07-17T01:43:54;7.28;;;5.38;;
6939;SDS011;3509;48.510;9.076;2022-07-17T01:46:19;6.63;;;5.13;;
6939;SDS011;3509;48.510;9.076;2022-07-17T01:48:45;5.80;;;5.10;;
6939;SDS011;3509;48.510;9.076;2022-07-17T01:51:11;8.18;;;6.10;;
6939;SDS011;3509;48.510;9.076;2022-07-17T01:53:36;6.45;;;5.80;;
6939;SDS011;3509;48.510;9.076;2022-07-17T01:56:02;6.68;;;5.95;;
6939;SDS011;3509;48.510;9.076;2022-07-17T01:58:28;8.18;;;5.80;;
6939;SDS011;3509;48.510;9.076;2022-07-17T02:00:53;10.57;;;5.70;;
6939;SDS011;3509;48.510;9.076;2022-07-17T02:03:19;6.75;;;5.72;;
6939;SDS011;3509;48.510;9.076;2022-07-17T02:05:46;8.02;;;6.32;;
6939;SDS011;3509;48.510;9.076;2022-07-17T02:08:11;7.57;;;5.78;;
6939;SDS011;3509;48.510;9.076;2022-07-17T02:10:37;9.07;;;6.28;;
6939;SDS011;3509;48.510;9.076;2022-07-17T02:13:03;8.30;;;6.78;;
6939;SDS011;3509;48.510;9.076;2022-07-17T02:15:28;8.07;;;7.05;;
6939;SDS011;3509;48.510;9.076;2022-07-17T02:17:54;8.48;;;6.50;;
6939;SDS011;3509;48.510;9.076;2022-07-17T02:20:20;7.13;;;6.43;;
6939;SDS011;3509;48.510;9.076;2022-07-17T02:22:46;7.65;;;6.57;;
6939;SDS011;3509;48.510;9.076;2022-07-17T02:25:12;7.93;;;6.85;;
6939;SDS011;3509;48.510;9.076;2022-07-17T02:27:38;9.35;;;7.13;;
6939;SDS011;3509;48.510;9.076;2022-07-17T02:30:05;11.55;;;7.25;;
6939;SDS011;3509;48.510;9.076;2022-07-17T02:32:36;7.18;;;6.47;;
6939;SDS011;3509;48.510;9.076;2022-07-17T02:35:03;8.90;;;7.72;;
6939;SDS011;3509;48.510;9.076;2022-07-17T02:37:30;9.20;;;7.40;;
6939;SDS011;3509;48.510;9.076;2022-07-17T02:39:55;7.65;;;6.93;;
6939;SDS011;3509;48.510;9.076;2022-07-17T02:42:22;9.93;;;7.43;;
6939;SDS011;3509;48.510;9.076;2022-07-17T02:44:48;10.02;;;6.75;;
6939;SDS011;3509;48.510;9.076;2022-07-17T02:47:24;10.27;;;7.72;;
6939;SDS011;3509;48.510;9.076;2022-07-17T02:49:51;9.10;;;7.25;;
6939;SDS011;3509;48.510;9.076;2022-07-17T02:52:18;8.35;;;7.15;;
6939;SDS011;3509;48.510;9.076;2022-07-17T02:54:44;10.07;;;8.00;;
6939;SDS011;3509;48.510;9.076;2022-07-17T02:57:10;8.60;;;7.15;;
6939;SDS011;3509;48.510;9.076;2022-07-17T02:59:36;10.07;;;7.97;;
6939;SDS011;3509;48.510;9.076;2022-07-17T03:02:02;8.75;;;7.55;;
6939;SDS011;3509;48.510;9.076;2022-07-17T03:04:28;10.77;;;7.72;;
6939;SDS011;3509;48.510;9.076;2022-07-17T03:06:54;8.98;;;8.15;;
6939;SDS011;3509;48.510;9.076;2022-07-17T03:09:19;8.57;;;7.70;;
6939;SDS011;3509;48.510;9.076;2022-07-17T03:11:45;9.07;;;8.18;;
6939;SDS011;3509;48.510;9.076;2022-07-17T03:14:11;10.55;;;8.52;;
6939;SDS011;3509;48.510;9.076;2022-07-17T03:16:36;8.73;;;7.82;;
6939;SDS011;3509;48.510;9.076;2022-07-17T03:19:02;8.32;;;7.53;;
6939;SDS011;3509;48.510;9.076;2022-07-17T03:21:28;12.48;;;8.32;;
6939;SDS011;3509;48.510;9.076;2022-07-17T03:23:54;8.10;;;7.28;;
6939;SDS011;3509;48.510;9.076;2022-07-17T03:26:19;11.20;;;8.02;;
6939;SDS011;3509;48.510;9.076;2022-07-17T03:28:45;11.93;;;7.68;;
6939;SDS011;3509;48.510;9.076;2022-07-17T03:31:10;9.43;;;8.38;;
6939;SDS011;3509;48.510;9.076;2022-07-17T03:33:36;9.07;;;8.18;;
6939;SDS011;3509;48.510;9.076;2022-07-17T03:36:02;9.48;;;8.57;;
6939;SDS011;3509;48.510;9.076;2022-07-17T03:38:27;11.35;;;8.07;;
6939;SDS011;3509;48.510;9.076;2022-07-17T03:40:53;14.63;;;8.27;;
6939;SDS011;3509;48.510;9.076;2022-07-17T03:43:18;9.43;;;7.80;;
6939;SDS011;3509;48.510;9.076;2022-07-17T03:45:44;10.23;;;9.02;;
6939;SDS011;3509;48.510;9.076;2022-07-17T03:48:10;10.43;;;8.85;;
6939;SDS011;3509;48.510;9.076;2022-07-17T03:50:35;9.95;;;8.85;;
6939;SDS011;3509;48.510;9.076;2022-07-17T03:53:01;10.68;;;8.32;;
6939;SDS011;3509;48.510;9.076;2022-07-17T03:55:27;10.60;;;8.35;;
6939;SDS011;3509;48.510;9.076;2022-07-17T03:57:52;9.63;;;8.63;;
6939;SDS011;3509;48.510;9.076;2022-07-17T04:00:18;9.82;;;8.02;;
6939;SDS011;3509;48.510;9.076;2022-07-17T04:02:44;11.32;;;8.95;;
6939;SDS011;3509;48.510;9.076;2022-07-17T04:05:09;11.27;;;8.52;;
6939;SDS011;3509;48.510;9.076;2022-07-17T04:07:39;9.48;;;8.50;;
6939;SDS011;3509;48.510;9.076;2022-07-17T04:10:07;13.45;;;8.73;;
6939;SDS011;3509;48.510;9.076;2022-07-17T04:15:07;11.82;;;9.82;;
6939;SDS011;3509;48.510;9.076;2022-07-17T04:17:34;9.98;;;8.90;;
6939;SDS011;3509;48.510;9.076;2022-07-17T04:20:00;11.35;;;9.38;;
6939;SDS011;3509;48.510;9.076;2022-07-17T04:22:26;10.80;;;8.45;;
6939;SDS011;3509;48.510;9.076;2022-07-17T04:24:52;10.70;;;8.88;;
6939;SDS011;3509;48.510;9.076;2022-07-17T04:27:18;11.55;;;9.32;;
6939;SDS011;3509;48.510;9.076;2022-07-17T04:29:44;11.40;;;8.82;;
6939;SDS011;3509;48.510;9.076;2022-07-17T04:32:10;11.93;;;8.57;;
6939;SDS011;3509;48.510;9.076;2022-07-17T04:34:35;9.75;;;8.75;;
6939;SDS011;3509;48.510;9.076;2022-07-17T04:37:02;16.23;;;8.57;;
6939;SDS011;3509;48.510;9.076;2022-07-17T04:39:28;10.07;;;8.70;;
6939;SDS011;3509;48.510;9.076;2022-07-17T04:41:54;13.80;;;8.50;;
6939;SDS011;3509;48.510;9.076;2022-07-17T04:44:20;13.82;;;8.68;;
6939;SDS011;3509;48.510;9.076;2022-07-17T04:46:46;8.90;;;8.00;;
6939;SDS011;3509;48.510;9.076;2022-07-17T04:49:11;12.38;;;8.60;;
6939;SDS011;3509;48.510;9.076;2022-07-17T04:51:38;8.93;;;8.02;;
6939;SDS011;3509;48.510;9.076;2022-07-17T04:54:04;9.73;;;8.10;;
6939;SDS011;3509;48.510;9.076;2022-07-17T04:56:29;11.13;;;8.20;;
6939;SDS011;3509;48.510;9.076;2022-07-17T04:58:55;7.88;;;6.88;;
6939;SDS011;3509;48.510;9.076;2022-07-17T05:01:21;8.05;;;7.00;;
6939;SDS011;3509;48.510;9.076;2022-07-17T05:03:46;7.57;;;6.70;;
6939;SDS011;3509;48.510;9.076;2022-07-17T05:06:12;9.32;;;7.47;;
6939;SDS011;3509;48.510;9.076;2022-07-17T05:08:37;7.65;;;6.50;;
6939;SDS011;3509;48.510;9.076;2022-07-17T05:11:03;11.63;;;7.25;;
6939;SDS011;3509;48.510;9.076;2022-07-17T05:13:29;8.48;;;6.43;;
6939;SDS011;3509;48.510;9.076;2022-07-17T05:15:54;7.78;;;6.50;;
6939;SDS011;3509;48.510;9.076;2022-07-17T05:18:20;7.07;;;6.38;;
6939;SDS011;3509;48.510;9.076;2022-07-17T05:20:46;10.88;;;6.63;;
6939;SDS011;3509;48.510;9.076;2022-07-17T05:23:11;9.23;;;5.80;;
6939;SDS011;3509;48.510;9.076;2022-07-17T05:25:37;7.65;;;4.38;;
6939;SDS011;3509;48.510;9.076;2022-07-17T05:28:03;5.25;;;4.13;;
6939;SDS011;3509;48.510;9.076;2022-07-17T05:30:29;7.63;;;4.07;;
6939;SDS011;3509;48.510;9.076;2022-07-17T05:32:55;4.05;;;3.65;;
6939;SDS011;3509;48.510;9.076;2022-07-17T05:35:21;5.28;;;3.90;;
6939;SDS011;3509;48.510;9.076;2022-07-17T05:37:47;4.32;;;3.60;;
6939;SDS011;3509;48.510;9.076;2022-07-17T05:40:13;5.03;;;3.83;;
6939;SDS011;3509;48.510;9.076;2022-07-17T05:42:38;5.03;;;3.47;;
6939;SDS011;3509;48.510;9.076;2022-07-17T05:45:04;6.85;;;3.90;;
6939;SDS011;3509;48.510;9.076;2022-07-17T05:47:30;6.07;;;3.97;;
6939;SDS011;3509;48.510;9.076;2022-07-17T05:49:56;6.30;;;3.75;;
6939;SDS011;3509;48.510;9.076;2022-07-17T05:52:22;8.85;;;3.50;;
6939;SDS011;3509;48.510;9.076;2022-07-17T05:54:47;4.22;;;3.50;;
6939;SDS011;3509;48.510;9.076;2022-07-17T05:57:13;5.13;;;3.80;;
6939;SDS011;3509;48.510;9.076;2022-07-17T05:59:39;4.20;;;3.40;;
6939;SDS011;3509;48.510;9.076;2022-07-17T06:02:04;4.72;;;3.70;;
6939;SDS011;3509;48.510;9.076;2022-07-17T06:04:30;5.15;;;3.55;;
6939;SDS011;3509;48.510;9.076;2022-07-17T06:06:57;7.55;;;3.95;;
6939;SDS011;3509;48.510;9.076;2022-07-17T06:09:23;5.35;;;3.42;;
6939;SDS011;3509;48.510;9.076;2022-07-17T06:11:48;10.30;;;3.60;;
6939;SDS011;3509;48.510;9.076;2022-07-17T06:14:14;3.90;;;3.58;;
6939;SDS011;3509;48.510;9.076;2022-07-17T06:16:40;6.60;;;3.90;;
6939;SDS011;3509;48.510;9.076;2022-07-17T06:19:05;4.95;;;3.30;;
6939;SDS011;3509;48.510;9.076;2022-07-17T06:21:31;5.57;;;3.88;;
6939;SDS011;3509;48.510;9.076;2022-07-17T06:23:57;6.47;;;3.95;;
6939;SDS011;3509;48.510;9.076;2022-07-17T06:26:22;4.18;;;3.67;;
6939;SDS011;3509;48.510;9.076;2022-07-17T06:28:48;4.93;;;3.83;;
6939;SDS011;3509;48.510;9.076;2022-07-17T06:31:14;6.55;;;3.83;;
6939;SDS011;3509;48.510;9.076;2022-07-17T06:33:40;4.40;;;3.70;;
6939;SDS011;3509;48.510;9.076;2022-07-17T06:36:05;5.60;;;4.00;;
6939;SDS011;3509;48.510;9.076;2022-07-17T06:38:32;6.78;;;3.50;;
6939;SDS011;3509;48.510;9.076;2022-07-17T06:40:58;4.53;;;3.75;;
6939;SDS011;3509;48.510;9.076;2022-07-17T06:43:24;4.32;;;3.90;;
6939;SDS011;3509;48.510;9.076;2022-07-17T06:45:50;6.13;;;3.45;;
6939;SDS011;3509;48.510;9.076;2022-07-17T06:48:18;4.28;;;3.60;;
6939;SDS011;3509;48.510;9.076;2022-07-17T06:50:45;6.07;;;3.72;;
6939;SDS011;3509;48.510;9.076;2022-07-17T06:53:10;5.10;;;3.67;;
6939;SDS011;3509;48.510;9.076;2022-07-17T06:55:36;4.55;;;3.50;;
6939;SDS011;3509;48.510;9.076;2022-07-17T06:58:02;4.13;;;3.63;;
6939;SDS011;3509;48.510;9.076;2022-07-17T07:00:27;3.83;;;3.13;;
6939;SDS011;3509;48.510;9.076;2022-07-17T07:02:53;4.57;;;3.55;;
6939;SDS011;3509;48.510;9.076;2022-07-17T07:05:19;3.45;;;3.10;;
6939;SDS011;3509;48.510;9.076;2022-07-17T07:07:44;6.22;;;3.65;;
6939;SDS011;3509;48.510;9.076;2022-07-17T07:10:10;5.20;;;3.30;;
6939;SDS011;3509;48.510;9.076;2022-07-17T07:12:36;3.88;;;3.00;;
6939;SDS011;3509;48.510;9.076;2022-07-17T07:15:02;3.63;;;3.00;;
6939;SDS011;3509;48.510;9.076;2022-07-17T07:17:28;4.55;;;3.30;;
6939;SDS011;3509;48.510;9.076;2022-07-17T07:19:53;3.90;;;3.10;;
6939;SDS011;3509;48.510;9.076;2022-07-17T07:22:19;4.90;;;3.22;;
6939;SDS011;3509;48.510;9.076;2022-07-17T07:24:44;3.72;;;3.10;;
6939;SDS011;3509;48.510;9.076;2022-07-17T07:27:10;4.05;;;3.05;;
6939;SDS011;3509;48.510;9.076;2022-07-17T07:29:36;4.40;;;3.40;;
6939;SDS011;3509;48.510;9.076;2022-07-17T07:32:02;3.08;;;2.72;;
6939;SDS011;3509;48.510;9.076;2022-07-17T07:34:27;6.53;;;3.30;;
6939;SDS011;3509;48.510;9.076;2022-07-17T07:36:53;4.53;;;2.72;;
6939;SDS011;3509;48.510;9.076;2022-07-17T07:39:19;5.28;;;2.92;;
6939;SDS011;3509;48.510;9.076;2022-07-17T07:41:44;3.50;;;2.85;;
6939;SDS011;3509;48.510;9.076;2022-07-17T07:44:10;5.15;;;2.90;;
6939;SDS011;3509;48.510;9.076;2022-07-17T07:46:36;5.57;;;2.85;;
6939;SDS011;3509;48.510;9.076;2022-07-17T07:49:01;4.13;;;3.13;;
6939;SDS011;3509;48.510;9.076;2022-07-17T07:51:27;5.25;;;2.83;;
6939;SDS011;3509;48.510;9.076;2022-07-17T07:53:53;3.58;;;2.53;;
6939;SDS011;3509;48.510;9.076;2022-07-17T07:56:18;7.15;;;2.80;;
6939;SDS011;3509;48.510;9.076;2022-07-17T07:58:44;4.57;;;2.78;;
6939;SDS011;3509;48.510;9.076;2022-07-17T08:01:09;3.17;;;2.80;;
6939;SDS011;3509;48.510;9.076;2022-07-17T08:03:35;3.42;;;2.70;;
6939;SDS011;3509;48.510;9.076;2022-07-17T08:06:01;4.43;;;2.92;;
6939;SDS011;3509;48.510;9.076;2022-07-17T08:08:26;2.78;;;2.42;;
6939;SDS011;3509;48.510;9.076;2022-07-17T08:10:52;3.60;;;2.60;;
6939;SDS011;3509;48.510;9.076;2022-07-17T08:13:18;4.35;;;2.60;;
6939;SDS011;3509;48.510;9.076;2022-07-17T08:15:44;2.38;;;2.17;;
6939;SDS011;3509;48.510;9.076;2022-07-17T08:18:10;2.60;;;2.40;;
6939;SDS011;3509;48.510;9.076;2022-07-17T08:20:35;5.45;;;2.60;;
6939;SDS011;3509;48.510;9.076;2022-07-17T08:23:01;2.67;;;2.40;;
6939;SDS011;3509;48.510;9.076;2022-07-17T08:25:27;2.28;;;2.08;;
6939;SDS011;3509;48.510;9.076;2022-07-17T08:27:52;4.25;;;2.40;;
6939;SDS011;3509;48.510;9.076;2022-07-17T08:30:18;5.68;;;2.60;;
6939;SDS011;3509;48.510;9.076;2022-07-17T08:32:44;2.55;;;2.35;;
6939;SDS011;3509;48.510;9.076;2022-07-17T08:35:09;2.83;;;2.25;;
6939;SDS011;3509;48.510;9.076;2022-07-17T08:37:46;2.50;;;2.30;;
6939;SDS011;3509;48.510;9.076;2022-07-17T08:40:20;3.90;;;2.25;;
6939;SDS011;3509;48.510;9.076;2022-07-17T08:42:47;3.13;;;2.40;;
6939;SDS011;3509;48.510;9.076;2022-07-17T08:45:14;3.28;;;2.47;;
6939;SDS011;3509;48.510;9.076;2022-07-17T08:47:40;4.55;;;2.60;;
6939;SDS011;3509;48.510;9.076;2022-07-17T08:50:07;2.83;;;2.20;;
6939;SDS011;3509;48.510;9.076;2022-07-17T08:52:37;4.80;;;2.28;;
6939;SDS011;3509;48.510;9.076;2022-07-17T08:55:03;4.07;;;2.28;;
6939;SDS011;3509;48.510;9.076;2022-07-17T08:57:30;7.35;;;2.67;;
6939;SDS011;3509;48.510;9.076;2022-07-17T08:59:55;3.35;;;2.20;;
6939;SDS011;3509;48.510;9.076;2022-07-17T09:02:21;5.65;;;2.40;;
6939;SDS011;3509;48.510;9.076;2022-07-17T09:04:53;3.05;;;2.42;;
6939;SDS011;3509;48.510;9.076;2022-07-17T09:07:19;3.45;;;2.15;;
6939;SDS011;3509;48.510;9.076;2022-07-17T09:09:50;5.00;;;2.10;;
6939;SDS011;3509;48.510;9.076;2022-07-17T09:12:16;3.17;;;2.10;;
6939;SDS011;3509;48.510;9.076;2022-07-17T09:14:42;3.72;;;2.30;;
6939;SDS011;3509;48.510;9.076;2022-07-17T09:17:09;4.18;;;2.40;;
6939;SDS011;3509;48.510;9.076;2022-07-17T09:19:45;3.33;;;2.10;;
6939;SDS011;3509;48.510;9.076;2022-07-17T09:27:06;4.75;;;2.28;;
6939;SDS011;3509;48.510;9.076;2022-07-17T09:29:31;4.65;;;2.05;;
6939;SDS011;3509;48.510;9.076;2022-07-17T09:31:57;3.92;;;2.28;;
6939;SDS011;3509;48.510;9.076;2022-07-17T09:34:23;2.35;;;1.88;;
6939;SDS011;3509;48.510;9.076;2022-07-17T09:36:58;3.92;;;2.45;;
6939;SDS011;3509;48.510;9.076;2022-07-17T09:39:33;7.18;;;2.42;;
6939;SDS011;3509;48.510;9.076;2022-07-17T09:42:03;2.40;;;2.13;;
6939;SDS011;3509;48.510;9.076;2022-07-17T09:44:28;7.05;;;2.33;;
6939;SDS011;3509;48.510;9.076;2022-07-17T09:46:54;3.88;;;2.35;;
6939;SDS011;3509;48.510;9.076;2022-07-17T09:49:21;2.80;;;2.13;;
6939;SDS011;3509;48.510;9.076;2022-07-17T09:51:51;2.50;;;2.20;;
6939;SDS011;3509;48.510;9.076;2022-07-17T09:54:17;4.78;;;2.05;;
6939;SDS011;3509;48.510;9.076;2022-07-17T09:56:51;2.63;;;2.25;;
6939;SDS011;3509;48.510;9.076;2022-07-17T09:59:22;2.55;;;2.28;;
6939;SDS011;3509;48.510;9.076;2022-07-17T10:01:51;2.13;;;1.92;;
6939;SDS011;3509;48.510;9.076;2022-07-17T10:04:18;3.35;;;2.00;;
6939;SDS011;3509;48.510;9.076;2022-07-17T10:06:43;4.13;;;2.20;;
6939;SDS011;3509;48.510;9.076;2022-07-17T10:09:09;4.28;;;1.85;;
6939;SDS011;3509;48.510;9.076;2022-07-17T10:11:36;3.88;;;2.20;;
6939;SDS011;3509;48.510;9.076;2022-07-17T10:14:04;2.38;;;2.05;;
6939;SDS011;3509;48.510;9.076;2022-07-17T10:16:33;2.17;;;1.98;;
6939;SDS011;3509;48.510;9.076;2022-07-17T10:19:01;3.10;;;1.75;;
6939;SDS011;3509;48.510;9.076;2022-07-17T10:21:28;2.72;;;2.13;;
6939;SDS011;3509;48.510;9.076;2022-07-17T10:29:30;4.72;;;2.00;;
6939;SDS011;3509;48.510;9.076;2022-07-17T10:32:01;5.88;;;2.00;;
6939;SDS011;3509;48.510;9.076;2022-07-17T10:37:16;4.13;;;2.03;;
6939;SDS011;3509;48.510;9.076;2022-07-17T10:39:54;1.73;;;1.63;;
6939;SDS011;3509;48.510;9.076;2022-07-17T10:42:37;2.55;;;2.00;;
6939;SDS011;3509;48.510;9.076;2022-07-17T10:45:19;2.70;;;1.85;;
6939;SDS011;3509;48.510;9.076;2022-07-17T10:55:46;1.80;;;1.70;;
6939;SDS011;3509;48.510;9.076;2022-07-17T11:00:43;5.88;;;1.95;;
6939;SDS011;3509;48.510;9.076;2022-07-17T11:03:12;2.10;;;1.90;;
6939;SDS011;3509;48.510;9.076;2022-07-17T11:05:38;1.77;;;1.60;;
6939;SDS011;3509;48.510;9.076;2022-07-17T11:08:04;2.15;;;1.77;;
6939;SDS011;3509;48.510;9.076;2022-07-17T11:10:34;2.22;;;1.80;;
6939;SDS011;3509;48.510;9.076;2022-07-17T11:13:12;2.22;;;1.65;;
6939;SDS011;3509;48.510;9.076;2022-07-17T11:15:44;3.00;;;1.80;;
6939;SDS011;3509;48.510;9.076;2022-07-17T11:18:12;1.90;;;1.70;;
6939;SDS011;3509;48.510;9.076;2022-07-17T11:21:00;2.80;;;1.95;;
6939;SDS011;3509;48.510;9.076;2022-07-17T11:23:30;2.85;;;1.73;;
6939;SDS011;3509;48.510;9.076;2022-07-17T11:26:01;2.13;;;1.90;;
6939;SDS011;3509;48.510;9.076;2022-07-17T11:30:54;3.13;;;1.80;;
6939;SDS011;3509;48.510;9.076;2022-07-17T11:33:20;1.85;;;1.75;;
6939;SDS011;3509;48.510;9.076;2022-07-17T11:35:46;2.70;;;1.60;;
6939;SDS011;3509;48.510;9.076;2022-07-17T11:38:12;2.13;;;1.77;;
6939;SDS011;3509;48.510;9.076;2022-07-17T11:40:47;1.90;;;1.77;;
6939;SDS011;3509;48.510;9.076;2022-07-17T11:43:13;4.38;;;1.75;;
6939;SDS011;3509;48.510;9.076;2022-07-17T11:45:39;2.53;;;1.80;;
6939;SDS011;3509;48.510;9.076;2022-07-17T11:48:07;3.42;;;1.60;;
6939;SDS011;3509;48.510;9.076;2022-07-17T11:50:33;3.15;;;1.45;;
6939;SDS011;3509;48.510;9.076;2022-07-17T11:53:03;2.83;;;1.80;;
6939;SDS011;3509;48.510;9.076;2022-07-17T11:55:39;1.70;;;1.60;;
6939;SDS011;3509;48.510;9.076;2022-07-17T11:58:06;3.38;;;1.88;;
6939;SDS011;3509;48.510;9.076;2022-07-17T12:00:32;2.70;;;1.70;;
6939;SDS011;3509;48.510;9.076;2022-07-17T12:03:01;2.65;;;1.75;;
6939;SDS011;3509;48.510;9.076;2022-07-17T12:05:29;2.28;;;1.70;;
6939;SDS011;3509;48.510;9.076;2022-07-17T12:07:57;2.95;;;1.80;;
6939;SDS011;3509;48.510;9.076;2022-07-17T12:10:24;3.70;;;1.80;;
6939;SDS011;3509;48.510;9.076;2022-07-17T12:12:58;3.00;;;1.70;;
6939;SDS011;3509;48.510;9.076;2022-07-17T12:18:23;2.22;;;1.80;;
6939;SDS011;3509;48.510;9.076;2022-07-17T12:20:55;2.42;;;1.40;;
6939;SDS011;3509;48.510;9.076;2022-07-17T12:23:26;2.30;;;1.80;;
6939;SDS011;3509;48.510;9.076;2022-07-17T12:26:07;2.92;;;1.63;;
6939;SDS011;3509;48.510;9.076;2022-07-17T12:28:40;3.80;;;1.65;;
6939;SDS011;3509;48.510;9.076;2022-07-17T12:31:09;2.45;;;1.77;;
6939;SDS011;3509;48.510;9.076;2022-07-17T12:33:37;2.72;;;1.80;;
6939;SDS011;3509;48.510;9.076;2022-07-17T12:36:03;2.22;;;1.80;;
6939;SDS011;3509;48.510;9.076;2022-07-17T12:38:28;2.00;;;1.80;;
6939;SDS011;3509;48.510;9.076;2022-07-17T12:40:54;3.20;;;1.67;;
6939;SDS011;3509;48.510;9.076;2022-07-17T12:43:20;3.28;;;2.10;;
6939;SDS011;3509;48.510;9.076;2022-07-17T12:45:46;3.40;;;1.92;;
6939;SDS011;3509;48.510;9.076;2022-07-17T12:48:12;2.20;;;1.95;;
6939;SDS011;3509;48.510;9.076;2022-07-17T12:50:38;1.80;;;1.70;;
6939;SDS011;3509;48.510;9.076;2022-07-17T12:53:03;1.73;;;1.60;;
6939;SDS011;3509;48.510;9.076;2022-07-17T12:55:29;2.85;;;1.80;;
6939;SDS011;3509;48.510;9.076;2022-07-17T12:57:54;2.75;;;1.85;;
6939;SDS011;3509;48.510;9.076;2022-07-17T13:00:20;4.15;;;1.60;;
6939;SDS011;3509;48.510;9.076;2022-07-17T13:02:46;3.15;;;1.60;;
6939;SDS011;3509;48.510;9.076;2022-07-17T13:05:11;2.35;;;1.52;;
6939;SDS011;3509;48.510;9.076;2022-07-17T13:07:37;1.55;;;1.45;;
6939;SDS011;3509;48.510;9.076;2022-07-17T13:10:03;3.70;;;1.98;;
6939;SDS011;3509;48.510;9.076;2022-07-17T13:12:30;3.78;;;1.80;;
6939;SDS011;3509;48.510;9.076;2022-07-17T13:14:55;3.97;;;2.45;;
6939;SDS011;3509;48.510;9.076;2022-07-17T13:17:21;3.72;;;1.85;;
6939;SDS011;3509;48.510;9.076;2022-07-17T13:19:47;2.30;;;2.10;;
6939;SDS011;3509;48.510;9.076;2022-07-17T13:22:13;4.95;;;2.80;;
6939;SDS011;3509;48.510;9.076;2022-07-17T13:24:39;3.17;;;2.35;;
6939;SDS011;3509;48.510;9.076;2022-07-17T13:27:05;3.38;;;2.13;;
6939;SDS011;3509;48.510;9.076;2022-07-17T13:29:31;3.42;;;1.70;;
6939;SDS011;3509;48.510;9.076;2022-07-17T13:31:57;4.07;;;1.95;;
6939;SDS011;3509;48.510;9.076;2022-07-17T13:34:23;3.25;;;1.90;;
6939;SDS011;3509;48.510;9.076;2022-07-17T13:36:48;1.90;;;1.75;;
6939;SDS011;3509;48.510;9.076;2022-07-17T13:39:15;2.08;;;1.80;;
6939;SDS011;3509;48.510;9.076;2022-07-17T13:41:41;3.67;;;1.80;;
6939;SDS011;3509;48.510;9.076;2022-07-17T13:44:07;2.78;;;1.90;;
6939;SDS011;3509;48.510;9.076;2022-07-17T13:46:33;1.88;;;1.77;;
6939;SDS011;3509;48.510;9.076;2022-07-17T13:48:59;1.63;;;1.50;;
6939;SDS011;3509;48.510;9.076;2022-07-17T13:51:25;2.90;;;1.70;;
6939;SDS011;3509;48.510;9.076;2022-07-17T13:53:51;2.15;;;1.70;;
6939;SDS011;3509;48.510;9.076;2022-07-17T13:56:17;5.35;;;1.60;;
6939;SDS011;3509;48.510;9.076;2022-07-17T13:58:43;2.42;;;2.00;;
6939;SDS011;3509;48.510;9.076;2022-07-17T14:01:11;1.98;;;1.80;;
6939;SDS011;3509;48.510;9.076;2022-07-17T14:03:37;2.53;;;1.95;;
6939;SDS011;3509;48.510;9.076;2022-07-17T14:06:03;2.72;;;1.88;;
6939;SDS011;3509;48.510;9.076;2022-07-17T14:08:29;2.15;;;1.80;;
6939;SDS011;3509;48.510;9.076;2022-07-17T14:10:55;2.42;;;2.00;;
6939;SDS011;3509;48.510;9.076;2022-07-17T14:13:22;2.40;;;1.85;;
6939;SDS011;3509;48.510;9.076;2022-07-17T14:15:47;2.45;;;2.10;;
6939;SDS011;3509;48.510;9.076;2022-07-17T14:18:13;2.17;;;2.00;;
6939;SDS011;3509;48.510;9.076;2022-07-17T14:20:38;2.65;;;1.70;;
6939;SDS011;3509;48.510;9.076;2022-07-17T14:23:04;1.95;;;1.75;;
6939;SDS011;3509;48.510;9.076;2022-07-17T14:25:30;2.78;;;2.00;;
6939;SDS011;3509;48.510;9.076;2022-07-17T14:27:55;1.83;;;1.73;;
6939;SDS011;3509;48.510;9.076;2022-07-17T14:30:21;3.13;;;1.83;;
6939;SDS011;3509;48.510;9.076;2022-07-17T14:32:47;4.78;;;1.75;;
6939;SDS011;3509;48.510;9.076;2022-07-17T14:35:13;2.88;;;2.00;;
6939;SDS011;3509;48.510;9.076;2022-07-17T14:37:39;1.85;;;1.73;;
6939;SDS011;3509;48.510;9.076;2022-07-17T14:40:05;4.97;;;2.15;;
6939;SDS011;3509;48.510;9.076;2022-07-17T14:42:31;2.20;;;2.00;;
6939;SDS011;3509;48.510;9.076;2022-07-17T14:45:00;2.28;;;2.08;;
6939;SDS011;3509;48.510;9.076;2022-07-17T14:47:25;2.05;;;1.80;;
6939;SDS011;3509;48.510;9.076;2022-07-17T14:49:51;2.22;;;1.92;;
6939;SDS011;3509;48.510;9.076;2022-07-17T14:52:17;2.95;;;2.20;;
6939;SDS011;3509;48.510;9.076;2022-07-17T14:54:43;2.58;;;1.90;;
6939;SDS011;3509;48.510;9.076;2022-07-17T14:57:08;1.95;;;1.77;;
6939;SDS011;3509;48.510;9.076;2022-07-17T14:59:34;2.70;;;2.15;;
6939;SDS011;3509;48.510;9.076;2022-07-17T15:02:00;2.45;;;1.90;;
6939;SDS011;3509;48.510;9.076;2022-07-17T15:04:26;4.80;;;2.13;;
6939;SDS011;3509;48.510;9.076;2022-07-17T15:06:52;1.85;;;1.75;;
6939;SDS011;3509;48.510;9.076;2022-07-17T15:09:17;2.25;;;1.77;;
6939;SDS011;3509;48.510;9.076;2022-07-17T15:11:44;2.10;;;1.90;;
6939;SDS011;3509;48.510;9.076;2022-07-17T15:14:10;4.07;;;1.90;;
6939;SDS011;3509;48.510;9.076;2022-07-17T15:16:36;2.25;;;2.05;;
6939;SDS011;3509;48.510;9.076;2022-07-17T15:19:02;4.13;;;2.00;;
6939;SDS011;3509;48.510;9.076;2022-07-17T15:21:28;2.30;;;2.10;;
6939;SDS011;3509;48.510;9.076;2022-07-17T15:23:54;2.17;;;1.98;;
6939;SDS011;3509;48.510;9.076;2022-07-17T15:26:19;4.93;;;2.05;;
6939;SDS011;3509;48.510;9.076;2022-07-17T15:28:45;2.60;;;1.90;;
6939;SDS011;3509;48.510;9.076;2022-07-17T15:31:11;2.80;;;1.98;;
6939;SDS011;3509;48.510;9.076;2022-07-17T15:33:37;4.20;;;2.00;;
6939;SDS011;3509;48.510;9.076;2022-07-17T15:36:07;2.10;;;1.90;;
6939;SDS011;3509;48.510;9.076;2022-07-17T15:38:34;3.08;;;1.85;;
6939;SDS011;3509;48.510;9.076;2022-07-17T15:41:01;4.20;;;2.00;;
6939;SDS011;3509;48.510;9.076;2022-07-17T15:43:26;1.90;;;1.73;;